Terminal Aerodrome Forecast
Issued by NWS

Current Version | Previous Version | Text Only | Print | Product List | Glossary On
Versions: 1 2 3 4 5 6 7 8 9 10 11 12 13 14 15
000
FTUS42 KMLB 231700
TAFSFB
TAF
KSFB 231739Z 2318/2418 27005KT P6SM FEW040
     FM232200 14008KT P6SM SCT040
     FM240200 21003KT P6SM SKC
     FM241500 15008KT P6SM FEW040=

USA.gov is the U.S. government's official web portal to all federal, state and local government web resources and services.